Mountain Home AFB, Idaho
Current Conditions -  °F | °C
As of 8:58 PM on Thursday 18 Dec 2014 (Local Time) from KMUO Reporting Station
Scattered Clouds Scattered Clouds  
Wind Chill: 31°   Ceiling: Unl
Heat Index: 40°   Visibility: 10mi
Dew Point: 32°   Wind: 16mph
Humidity: 73%   Direction: 100°E
Pressure: 30.08"   Gusts: NA
Location:  43.05°N, 115.86°W
Report Text: KMUO 190358Z 10014KT 10SM FEW060 SCT110 04/00 A3008 RMK AO2A CIG 060 RWY30 SLP203 T00431002
Loading
Personal Weather Stations






























Interactive Weather Map New forecast layout! Learn more

10-Day Weather Forecast

Advertisements
Track Severe Weather on mobile